Time;durP1;ratioP1;P1;durP2;ratioP2;P2;SDS_P1;SDS_P2;PMS_P1;PMS_P2;Temp;Humidity;BMP_temperature;BMP_pressure;BME280_temperature;BME280_humidity;BME280_pressure;Samples;Min_cycle;Max_cycle;Signal;HPM_P1;HPM_P2
2022/04/29 00:01:19;;;;;;;0.10;0.10;;;6.60;99.90;;;;;;5099484;28;20368;-80
2022/04/29 00:03:45;;;;;;;0.00;0.00;;;6.60;99.90;;;;;;5099132;28;20055;-80
2022/04/29 00:06:10;;;;;;;0.00;0.00;;;6.50;99.90;;;;;;5099261;28;20399;-79
2022/04/29 00:08:36;;;;;;;0.00;0.00;;;6.60;99.90;;;;;;5115957;28;20040;-80
2022/04/29 00:11:02;;;;;;;0.00;0.00;;;6.60;99.90;;;;;;5116019;28;20040;-80
2022/04/29 00:13:27;;;;;;;0.00;0.00;;;6.70;99.90;;;;;;5098911;28;20051;-80
2022/04/29 00:15:53;;;;;;;0.00;0.00;;;6.50;99.90;;;;;;5098913;28;20036;-80
2022/04/29 00:18:21;;;;;;;0.10;0.00;;;6.50;99.90;;;;;;5115947;28;20488;-80
2022/04/29 00:20:49;;;;;;;0.00;0.00;;;6.50;99.90;;;;;;5115823;28;20074;-80
2022/04/29 00:23:18;;;;;;;0.40;0.40;;;6.50;99.90;;;;;;5115323;28;20066;-80
2022/04/29 00:25:44;;;;;;;0.00;0.00;;;6.50;99.90;;;;;;5098701;28;20043;-80
2022/04/29 00:28:10;;;;;;;0.00;0.00;;;6.50;99.90;;;;;;5098535;28;20143;-80
2022/04/29 00:30:36;;;;;;;0.00;0.00;;;6.40;99.90;;;;;;5115645;28;20093;-80
2022/04/29 00:33:02;;;;;;;0.00;0.00;;;6.40;99.90;;;;;;5115307;28;20554;-80
2022/04/29 00:35:28;;;;;;;0.00;0.00;;;6.40;99.90;;;;;;5115154;28;20421;-80
2022/04/29 00:37:55;;;;;;;0.13;0.00;;;6.40;99.90;;;;;;5115389;28;20051;-80
2022/04/29 00:40:22;;;;;;;0.00;0.00;;;6.40;99.90;;;;;;5098484;28;20051;-80
2022/04/29 00:42:49;;;;;;;0.00;0.00;;;6.30;99.90;;;;;;5115430;28;20139;-80
2022/04/29 00:45:17;;;;;;;0.00;0.00;;;6.30;99.90;;;;;;5098147;28;20551;-80
2022/04/29 00:47:43;;;;;;;0.00;0.00;;;6.20;99.90;;;;;;5115025;28;20447;-80
2022/04/29 00:50:11;;;;;;;0.00;0.00;;;6.20;99.90;;;;;;5098504;28;20055;-80
2022/04/29 00:52:45;;;;;;;0.28;0.28;;;6.20;99.90;;;;;;5115865;28;20043;-80
2022/04/29 00:55:12;;;;;;;0.00;0.00;;;6.20;99.90;;;;;;5114708;28;20050;-80
2022/04/29 00:57:51;;;;;;;0.10;0.10;;;6.10;99.90;;;;;;5114926;28;20063;-80
2022/04/29 01:00:18;;;;;;;0.00;0.00;;;6.10;99.90;;;;;;5114969;28;20050;-80
2022/04/29 01:02:51;;;;;;;0.00;0.00;;;6.10;99.90;;;;;;5097618;28;20102;-80
2022/04/29 01:05:20;;;;;;;0.00;0.00;;;6.10;99.90;;;;;;5098110;28;20044;-80
2022/04/29 01:07:47;;;;;;;0.00;0.00;;;6.10;99.90;;;;;;5097683;28;20482;-80
2022/04/29 01:10:14;;;;;;;0.00;0.00;;;6.00;99.90;;;;;;5097513;28;20044;-80
2022/04/29 01:12:42;;;;;;;0.00;0.00;;;5.90;99.90;;;;;;5114782;28;20513;-80
2022/04/29 01:15:18;;;;;;;0.00;0.00;;;5.80;99.90;;;;;;5114616;28;20086;-80
2022/04/29 01:17:46;;;;;;;0.28;0.10;;;5.80;99.90;;;;;;5114958;28;20048;-80
2022/04/29 01:20:18;;;;;;;0.30;0.30;;;5.80;99.90;;;;;;5097789;28;20413;-80
2022/04/29 01:22:44;;;;;;;0.00;0.00;;;5.80;99.90;;;;;;5097120;28;20502;-80
2022/04/29 01:25:11;;;;;;;0.00;0.00;;;5.70;99.90;;;;;;5113144;28;20398;-79
2022/04/29 01:27:37;;;;;;;0.13;0.00;;;5.60;99.90;;;;;;5112250;28;20505;-79
2022/04/29 01:30:16;;;;;;;0.00;0.00;;;5.60;99.90;;;;;;5113866;28;20054;-80
2022/04/29 01:32:42;;;;;;;0.00;0.00;;;5.50;99.90;;;;;;5097839;28;20051;-80
2022/04/29 01:35:09;;;;;;;0.00;0.00;;;5.60;99.90;;;;;;5114170;28;20130;-80
2022/04/29 01:37:36;;;;;;;0.00;0.00;;;5.50;99.90;;;;;;5114614;28;20052;-80
2022/04/29 01:40:03;;;;;;;0.00;0.00;;;5.60;99.90;;;;;;5096941;28;20506;-79
2022/04/29 01:42:28;;;;;;;0.20;0.20;;;5.50;99.90;;;;;;5096800;28;20046;-80
2022/04/29 01:44:54;;;;;;;0.00;0.00;;;5.50;99.90;;;;;;5114071;28;20040;-80
2022/04/29 01:47:20;;;;;;;0.25;0.00;;;5.50;99.90;;;;;;5096878;28;20044;-80
2022/04/29 01:49:46;;;;;;;0.00;0.00;;;5.40;99.90;;;;;;5114079;28;20040;-80
2022/04/29 01:52:12;;;;;;;0.00;0.00;;;5.40;99.90;;;;;;5114059;28;20568;-80
2022/04/29 01:54:38;;;;;;;0.00;0.00;;;5.40;99.90;;;;;;5096704;28;20425;-80
2022/04/29 01:57:08;;;;;;;0.00;0.00;;;5.40;99.90;;;;;;5113416;28;20126;-80
2022/04/29 01:59:35;;;;;;;0.25;0.00;;;5.50;99.90;;;;;;5096579;28;20104;-80
2022/04/29 02:02:03;;;;;;;0.10;0.10;;;5.40;99.90;;;;;;5113873;28;20531;-80
2022/04/29 02:04:29;;;;;;;0.00;0.00;;;5.40;99.90;;;;;;5115663;28;20050;-80
2022/04/29 02:06:55;;;;;;;0.00;0.00;;;5.40;99.90;;;;;;5120720;28;20055;-80
2022/04/29 02:09:21;;;;;;;0.00;0.00;;;5.40;99.90;;;;;;5103371;28;20054;-79
2022/04/29 02:12:05;;;;;;;0.00;0.00;;;5.40;99.90;;;;;;5119405;28;20039;-80
2022/04/29 02:14:42;;;;;;;0.00;0.00;;;5.30;99.90;;;;;;5102108;28;20040;-80
2022/04/29 02:17:09;;;;;;;0.00;0.00;;;5.30;99.90;;;;;;5119156;28;20039;-80
2022/04/29 02:19:36;;;;;;;0.00;0.00;;;5.30;99.90;;;;;;5102435;28;20044;-80
2022/04/29 02:22:03;;;;;;;0.05;0.05;;;5.20;99.90;;;;;;5100988;28;20043;-80
2022/04/29 02:24:29;;;;;;;0.00;0.00;;;5.20;99.90;;;;;;5117129;28;20047;-80
2022/04/29 02:26:55;;;;;;;0.57;0.57;;;5.20;99.90;;;;;;5115739;28;20134;-80
2022/04/29 02:29:22;;;;;;;0.00;0.00;;;5.20;99.90;;;;;;5115344;28;20046;-81
2022/04/29 02:31:49;;;;;;;0.05;0.05;;;5.20;99.90;;;;;;5097457;28;20142;-79
2022/04/29 02:34:15;;;;;;;0.00;0.00;;;5.20;99.90;;;;;;5113565;28;20043;-80
2022/04/29 02:36:41;;;;;;;0.00;0.00;;;5.10;99.90;;;;;;5113195;28;20039;-80
2022/04/29 02:39:07;;;;;;;0.00;0.00;;;5.10;99.90;;;;;;5096560;28;20047;-79
2022/04/29 02:41:33;;;;;;;0.00;0.00;;;5.10;99.90;;;;;;5113409;28;20051;-80
2022/04/29 02:43:58;;;;;;;0.00;0.00;;;5.10;99.90;;;;;;5113390;28;20096;-80
2022/04/29 02:46:24;;;;;;;1.25;0.52;;;5.10;99.90;;;;;;5113255;28;20083;-80
2022/04/29 02:48:50;;;;;;;0.00;0.00;;;5.20;99.90;;;;;;5113333;28;20044;-79
2022/04/29 02:51:15;;;;;;;0.85;0.10;;;5.10;99.90;;;;;;5113346;28;20090;-79
2022/04/29 02:53:44;;;;;;;0.00;0.00;;;5.10;99.90;;;;;;5096447;28;20491;-80
2022/04/29 02:56:10;;;;;;;0.00;0.00;;;5.10;99.90;;;;;;5113463;28;20048;-79
2022/04/29 02:58:36;;;;;;;0.47;0.00;;;5.10;99.90;;;;;;5112940;28;20402;-79
2022/04/29 03:01:02;;;;;;;0.00;0.00;;;5.10;99.90;;;;;;5096520;28;20402;-79
2022/04/29 03:03:31;;;;;;;0.00;0.00;;;5.10;99.90;;;;;;5113231;28;20368;-80
2022/04/29 03:05:57;;;;;;;0.00;0.00;;;5.10;99.90;;;;;;5096543;28;20051;-80
2022/04/29 03:08:22;;;;;;;0.00;0.00;;;5.10;99.90;;;;;;5112671;28;20052;-80
2022/04/29 03:10:48;;;;;;;0.00;0.00;;;5.10;99.90;;;;;;5113291;28;20050;-80
2022/04/29 03:13:14;;;;;;;0.00;0.00;;;5.10;99.90;;;;;;5113056;28;20096;-80
2022/04/29 03:15:40;;;;;;;0.00;0.00;;;5.10;99.90;;;;;;5096225;28;20051;-80
2022/04/29 03:18:17;;;;;;;0.00;0.00;;;5.10;99.90;;;;;;5095911;28;20494;-80
2022/04/29 03:20:45;;;;;;;0.00;0.00;;;5.10;99.90;;;;;;5096093;28;20471;-80
2022/04/29 03:23:11;;;;;;;0.00;0.00;;;5.20;99.90;;;;;;5095625;28;20043;-79
2022/04/29 03:25:37;;;;;;;0.00;0.00;;;5.20;99.90;;;;;;5114888;28;20047;-80
2022/04/29 03:28:05;;;;;;;0.00;0.00;;;5.20;99.90;;;;;;5117190;28;20054;-80
2022/04/29 03:30:31;;;;;;;0.00;0.00;;;5.20;99.90;;;;;;5100019;28;20048;-79
2022/04/29 03:32:59;;;;;;;0.00;0.00;;;5.20;99.90;;;;;;5116672;28;20127;-80
2022/04/29 03:35:25;;;;;;;0.00;0.00;;;5.30;99.90;;;;;;5116798;28;20040;-80
2022/04/29 03:37:52;;;;;;;0.15;0.08;;;5.30;99.90;;;;;;5099916;28;20392;-80
2022/04/29 03:40:21;;;;;;;0.20;0.20;;;5.20;99.90;;;;;;5116807;28;20120;-80
2022/04/29 03:42:48;;;;;;;0.00;0.00;;;5.30;99.90;;;;;;5116750;28;20043;-80
2022/04/29 03:45:14;;;;;;;0.00;0.00;;;5.20;99.90;;;;;;5116598;28;20099;-80
2022/04/29 03:47:41;;;;;;;0.00;0.00;;;5.20;99.90;;;;;;5117383;28;20387;-80
2022/04/29 03:50:07;;;;;;;0.08;0.08;;;5.30;99.90;;;;;;5116669;28;20051;-79
2022/04/29 03:52:32;;;;;;;0.00;0.00;;;5.20;99.90;;;;;;5116727;28;20055;-79
2022/04/29 03:54:58;;;;;;;0.00;0.00;;;5.20;99.90;;;;;;5116473;28;20056;-80
2022/04/29 03:57:24;;;;;;;0.10;0.00;;;5.20;99.90;;;;;;5115915;28;20475;-80
2022/04/29 03:59:49;;;;;;;0.00;0.00;;;5.20;99.90;;;;;;5099081;28;20055;-79
2022/04/29 04:02:16;;;;;;;0.10;0.00;;;5.10;99.90;;;;;;5116967;28;20043;-80
2022/04/29 04:04:42;;;;;;;0.00;0.00;;;5.10;99.90;;;;;;5099135;28;20434;-80
2022/04/29 04:07:07;;;;;;;0.00;0.00;;;5.10;99.90;;;;;;5099335;28;20151;-79
2022/04/29 04:09:33;;;;;;;0.00;0.00;;;5.10;99.90;;;;;;5115955;28;20463;-80
2022/04/29 04:11:59;;;;;;;0.05;0.05;;;5.00;99.90;;;;;;5116230;28;20130;-80
2022/04/29 04:14:25;;;;;;;0.00;0.00;;;5.00;99.90;;;;;;5115937;28;20042;-79
2022/04/29 04:16:51;;;;;;;0.00;0.00;;;5.00;99.90;;;;;;5098696;28;20104;-79
2022/04/29 04:19:16;;;;;;;0.00;0.00;;;5.00;99.90;;;;;;5116062;28;20079;-79
2022/04/29 04:21:42;;;;;;;0.00;0.00;;;5.00;99.90;;;;;;5116026;28;20120;-80
2022/04/29 04:24:08;;;;;;;0.90;0.20;;;5.00;99.90;;;;;;5116044;28;20484;-80
2022/04/29 04:26:34;;;;;;;0.00;0.00;;;5.00;99.90;;;;;;5115807;28;20040;-80
2022/04/29 04:29:00;;;;;;;0.00;0.00;;;5.00;99.90;;;;;;5115874;28;20462;-80
2022/04/29 04:31:26;;;;;;;0.45;0.00;;;5.00;99.90;;;;;;5115723;28;20075;-79
2022/04/29 04:33:52;;;;;;;0.00;0.00;;;5.30;99.90;;;;;;5115288;28;20043;-80
2022/04/29 04:36:18;;;;;;;0.05;0.00;;;5.00;99.90;;;;;;5097959;28;20488;-80
2022/04/29 04:38:47;;;;;;;0.45;0.45;;;5.10;99.90;;;;;;5115220;28;20047;-80
2022/04/29 04:41:14;;;;;;;0.00;0.00;;;5.10;99.90;;;;;;5115424;28;20073;-80
2022/04/29 04:43:40;;;;;;;0.00;0.00;;;5.20;99.90;;;;;;5115451;28;20360;-80
2022/04/29 04:46:06;;;;;;;0.10;0.05;;;5.30;99.90;;;;;;5115803;28;20042;-80
2022/04/29 04:48:32;;;;;;;0.00;0.00;;;5.30;99.90;;;;;;5099157;28;20457;-80
2022/04/29 04:51:01;;;;;;;0.00;0.00;;;5.30;99.90;;;;;;5115406;28;20044;-80
2022/04/29 04:53:27;;;;;;;0.00;0.00;;;5.30;99.90;;;;;;5115660;28;20376;-80
2022/04/29 04:55:53;;;;;;;0.00;0.00;;;5.40;99.90;;;;;;5098162;28;20108;-80
2022/04/29 04:58:19;;;;;;;0.00;0.00;;;5.50;99.90;;;;;;5114676;28;20047;-80
2022/04/29 05:00:44;;;;;;;0.08;0.08;;;5.50;99.90;;;;;;5115387;28;20131;-80
2022/04/29 05:03:10;;;;;;;0.00;0.00;;;5.60;99.90;;;;;;5115588;28;20061;-80
2022/04/29 05:05:36;;;;;;;0.05;0.05;;;5.60;99.90;;;;;;5098003;28;20135;-80
2022/04/29 05:08:01;;;;;;;0.00;0.00;;;5.70;99.90;;;;;;5098076;28;20105;-80
2022/04/29 05:10:27;;;;;;;0.00;0.00;;;5.80;99.90;;;;;;5115160;28;20502;-80
2022/04/29 05:12:53;;;;;;;0.00;0.00;;;5.80;99.90;;;;;;5114877;28;20092;-80
2022/04/29 05:15:18;;;;;;;0.00;0.00;;;5.90;99.90;;;;;;5114452;28;20060;-80
2022/04/29 05:17:44;;;;;;;0.00;0.00;;;6.00;99.90;;;;;;5115104;28;20039;-80
2022/04/29 05:20:13;;;;;;;0.00;0.00;;;6.10;99.90;;;;;;5097996;28;20075;-79
2022/04/29 05:22:39;;;;;;;0.00;0.00;;;6.20;99.90;;;;;;5097943;28;20052;-80
2022/04/29 05:25:06;;;;;;;0.32;0.32;;;6.30;99.90;;;;;;5114736;28;20394;-80
2022/04/29 05:27:32;;;;;;;0.25;0.25;;;6.40;99.90;;;;;;5097689;28;20067;-80
2022/04/29 05:29:57;;;;;;;0.00;0.00;;;6.50;99.90;;;;;;5114783;28;20043;-80
2022/04/29 05:32:25;;;;;;;0.10;0.00;;;6.70;99.90;;;;;;5114680;28;20391;-80
2022/04/29 05:34:51;;;;;;;0.00;0.00;;;6.70;99.90;;;;;;5114511;28;20051;-80
2022/04/29 05:37:18;;;;;;;0.00;0.00;;;6.90;99.90;;;;;;5097177;28;20429;-80
2022/04/29 05:42:28;;;;;;;0.00;0.00;;;7.10;99.90;;;;;;5114205;28;20054;-79
2022/04/29 05:44:55;;;;;;;0.00;0.00;;;7.30;99.90;;;;;;5114074;28;20035;-80
2022/04/29 05:47:20;;;;;;;0.00;0.00;;;7.40;99.90;;;;;;5097346;28;20131;-80
2022/04/29 05:49:46;;;;;;;0.32;0.00;;;7.50;99.90;;;;;;5112996;28;20517;-80
2022/04/29 05:52:12;;;;;;;1.45;0.30;;;7.50;99.90;;;;;;5114154;28;20135;-80
2022/04/29 05:54:38;;;;;;;0.00;0.00;;;7.60;99.90;;;;;;5114149;28;20044;-80
2022/04/29 05:57:04;;;;;;;0.22;0.10;;;7.60;99.90;;;;;;5113670;28;20043;-80
2022/04/29 05:59:31;;;;;;;0.00;0.00;;;7.60;99.90;;;;;;5114005;28;20048;-80
2022/04/29 06:01:58;;;;;;;0.00;0.00;;;7.60;99.90;;;;;;5114035;28;20039;-80
2022/04/29 06:04:24;;;;;;;0.00;0.00;;;7.70;99.90;;;;;;5114261;28;20039;-80
2022/04/29 06:06:50;;;;;;;0.00;0.00;;;7.70;99.90;;;;;;5113837;28;20463;-80
2022/04/29 06:09:16;;;;;;;0.10;0.00;;;7.70;99.90;;;;;;5113791;28;20051;-79
2022/04/29 06:11:41;;;;;;;0.47;0.40;;;7.80;99.90;;;;;;5096883;28;20123;-79
2022/04/29 06:14:07;;;;;;;0.00;0.00;;;7.80;99.90;;;;;;5113774;28;20044;-79
2022/04/29 06:16:33;;;;;;;0.45;0.00;;;7.90;99.90;;;;;;5113760;28;20047;-80
2022/04/29 06:18:59;;;;;;;0.00;0.00;;;7.90;99.90;;;;;;5113596;28;20040;-80
2022/04/29 06:21:25;;;;;;;0.00;0.00;;;7.90;99.90;;;;;;5113632;28;20043;-79
2022/04/29 06:23:51;;;;;;;0.00;0.00;;;8.00;99.90;;;;;;5096224;28;20070;-80
2022/04/29 06:26:16;;;;;;;0.00;0.00;;;8.10;99.90;;;;;;5096296;28;20078;-80
2022/04/29 06:28:42;;;;;;;0.00;0.00;;;8.10;99.90;;;;;;5113536;28;20197;-80
2022/04/29 06:31:09;;;;;;;0.10;0.00;;;8.20;99.90;;;;;;5097072;28;20063;-80
2022/04/29 06:33:36;;;;;;;0.00;0.00;;;8.10;99.90;;;;;;5113278;28;20473;-80
2022/04/29 06:36:02;;;;;;;0.00;0.00;;;8.20;99.90;;;;;;5096184;28;20494;-80
2022/04/29 06:38:28;;;;;;;1.35;0.77;;;8.20;99.90;;;;;;5096381;28;20052;-79
2022/04/29 06:40:57;;;;;;;0.45;0.13;;;8.30;99.90;;;;;;5113570;28;20100;-79
2022/04/29 06:43:23;;;;;;;0.00;0.00;;;8.30;99.90;;;;;;5113290;28;20044;-80
2022/04/29 06:45:49;;;;;;;0.05;0.05;;;8.40;99.90;;;;;;5096565;28;20394;-80
2022/04/29 06:48:14;;;;;;;0.25;0.00;;;8.40;99.90;;;;;;5096533;28;20479;-79
2022/04/29 06:50:41;;;;;;;0.00;0.00;;;8.40;99.90;;;;;;5096380;28;20047;-79
2022/04/29 06:53:07;;;;;;;1.65;0.55;;;8.60;99.90;;;;;;5096387;28;20475;-79
2022/04/29 06:55:36;;;;;;;0.00;0.00;;;8.70;99.90;;;;;;5112944;28;20104;-79
2022/04/29 06:58:02;;;;;;;0.00;0.00;;;8.70;99.90;;;;;;5112766;28;20056;-80
2022/04/29 07:00:28;;;;;;;0.20;0.10;;;8.70;99.90;;;;;;5099844;28;20390;-80
2022/04/29 07:02:56;;;;;;;0.00;0.00;;;8.70;99.90;;;;;;5120020;28;20483;-80
2022/04/29 07:05:23;;;;;;;0.00;0.00;;;8.80;99.90;;;;;;5119990;28;20395;-80
2022/04/29 07:07:50;;;;;;;0.13;0.13;;;8.80;99.90;;;;;;5103146;28;20055;-80
2022/04/29 07:10:16;;;;;;;0.00;0.00;;;8.80;99.90;;;;;;5103017;28;20478;-80
2022/04/29 07:12:43;;;;;;;0.35;0.35;;;8.90;99.90;;;;;;5119825;28;20047;-79
2022/04/29 07:15:11;;;;;;;0.00;0.00;;;9.00;99.90;;;;;;5119811;28;20046;-79
2022/04/29 07:17:37;;;;;;;0.00;0.00;;;8.90;99.90;;;;;;5119838;28;20120;-79
2022/04/29 07:20:04;;;;;;;0.20;0.20;;;9.00;99.90;;;;;;5120241;28;20502;-79
2022/04/29 07:22:29;;;;;;;0.38;0.00;;;9.00;99.90;;;;;;5119862;28;20079;-80
2022/04/29 07:24:55;;;;;;;0.35;0.10;;;8.90;99.90;;;;;;5119868;28;20079;-80
2022/04/29 07:27:21;;;;;;;0.55;0.00;;;9.00;99.90;;;;;;5102661;28;20460;-80
2022/04/29 07:29:47;;;;;;;0.05;0.00;;;9.00;99.90;;;;;;5102376;28;20462;-80
2022/04/29 07:32:13;;;;;;;0.10;0.10;;;9.00;99.90;;;;;;5119501;28;20035;-80
2022/04/29 07:42:51;;;;;;;0.00;0.00;;;9.30;99.90;;;;;;5119327;28;20047;-80
2022/04/29 07:45:17;;;;;;;0.00;0.00;;;9.40;99.90;;;;;;5119064;28;20052;-81
2022/04/29 07:47:43;;;;;;;0.98;0.30;;;9.50;99.90;;;;;;5119361;28;20047;-81
2022/04/29 07:50:09;;;;;;;0.10;0.00;;;9.60;99.90;;;;;;5119625;28;20108;-80
2022/04/29 07:52:35;;;;;;;0.00;0.00;;;9.70;99.90;;;;;;5119419;28;20083;-80
2022/04/29 07:55:01;;;;;;;0.00;0.00;;;9.90;99.90;;;;;;5102519;28;20089;-80
2022/04/29 07:57:27;;;;;;;0.75;0.25;;;10.10;99.90;;;;;;5101742;28;20134;-80
2022/04/29 07:59:52;;;;;;;0.00;0.00;;;10.20;99.90;;;;;;5119486;28;20048;-80
2022/04/29 08:02:18;;;;;;;0.00;0.00;;;10.40;99.90;;;;;;5119257;28;20044;-80
2022/04/29 08:04:44;;;;;;;0.00;0.00;;;10.50;99.90;;;;;;5102350;28;20094;-80
2022/04/29 08:07:11;;;;;;;0.00;0.00;;;10.70;99.90;;;;;;5119063;28;20043;-80
2022/04/29 08:09:37;;;;;;;1.65;0.22;;;10.70;99.90;;;;;;5119316;28;20456;-80
2022/04/29 08:12:04;;;;;;;0.63;0.00;;;10.60;99.90;;;;;;5099493;28;20667;-80
2022/04/29 08:14:29;;;;;;;0.28;0.00;;;10.70;99.90;;;;;;5099158;28;20130;-80
2022/04/29 08:16:55;;;;;;;0.00;0.00;;;10.80;99.90;;;;;;5115809;28;20147;-80
2022/04/29 08:19:21;;;;;;;1.45;0.10;;;11.00;99.90;;;;;;5098702;28;20059;-80
2022/04/29 08:21:47;;;;;;;0.05;0.05;;;11.20;99.90;;;;;;5116038;28;20108;-80
2022/04/29 08:24:13;;;;;;;1.38;0.52;;;11.40;99.90;;;;;;5115924;28;20048;-80
2022/04/29 08:26:39;;;;;;;0.20;0.10;;;11.50;99.90;;;;;;5115702;28;20072;-80
2022/04/29 08:29:05;;;;;;;0.03;0.03;;;11.40;99.90;;;;;;5098552;28;20051;-80
2022/04/29 08:31:31;;;;;;;0.77;0.43;;;11.50;99.90;;;;;;5116146;28;20043;-80
2022/04/29 08:33:56;;;;;;;0.00;0.00;;;11.50;99.90;;;;;;5098927;28;20390;-80
2022/04/29 08:36:22;;;;;;;0.00;0.00;;;11.60;99.90;;;;;;5115588;28;20039;-80
2022/04/29 08:38:48;;;;;;;0.00;0.00;;;11.80;99.90;;;;;;5115140;28;20095;-80
2022/04/29 08:41:19;;;;;;;0.00;0.00;;;12.10;99.90;;;;;;5115488;28;20079;-80
2022/04/29 08:43:45;;;;;;;0.00;0.00;;;12.30;99.90;;;;;;5098729;28;20055;-80
2022/04/29 08:46:13;;;;;;;0.20;0.17;;;12.30;99.90;;;;;;5115286;28;20134;-80
2022/04/29 08:48:41;;;;;;;0.08;0.00;;;12.20;99.90;;;;;;5098324;28;20047;-80
2022/04/29 08:51:07;;;;;;;0.08;0.00;;;12.10;99.90;;;;;;5115282;28;20126;-81
2022/04/29 08:53:34;;;;;;;0.00;0.00;;;12.10;99.90;;;;;;5115309;28;20506;-80
2022/04/29 08:58:46;;;;;;;0.00;0.00;;;12.20;99.90;;;;;;5114977;28;20056;-81
2022/04/29 09:01:15;;;;;;;0.00;0.00;;;12.60;99.90;;;;;;5098407;28;20058;-81
2022/04/29 09:03:43;;;;;;;0.30;0.10;;;12.70;99.00;;;;;;5115213;28;20043;-80
2022/04/29 09:06:08;;;;;;;1.55;0.77;;;12.90;99.00;;;;;;5097969;28;20051;-81
2022/04/29 09:08:42;;;;;;;0.00;0.00;;;13.20;99.90;;;;;;5098233;28;20567;-80
2022/04/29 09:11:08;;;;;;;7.13;0.95;;;13.40;99.50;;;;;;5114696;28;20044;-80
2022/04/29 09:13:39;;;;;;;0.00;0.00;;;13.50;98.10;;;;;;5114509;28;20471;-80
2022/04/29 09:16:12;;;;;;;0.00;0.00;;;13.40;97.50;;;;;;5097600;28;20131;-80
2022/04/29 09:18:48;;;;;;;0.00;0.00;;;13.40;97.70;;;;;;5097961;28;20529;-80
2022/04/29 09:21:16;;;;;;;0.00;0.00;;;13.30;97.10;;;;;;5115016;28;20043;-80
2022/04/29 09:23:49;;;;;;;0.00;0.00;;;13.20;97.40;;;;;;5114590;28;20043;-80
2022/04/29 09:26:21;;;;;;;0.00;0.00;;;13.10;97.70;;;;;;5115035;28;20415;-80
2022/04/29 09:28:47;;;;;;;3.58;0.63;;;13.00;97.60;;;;;;5097604;28;20044;-81
2022/04/29 09:31:14;;;;;;;0.22;0.22;;;13.00;98.00;;;;;;5114466;28;20095;-80
2022/04/29 09:33:40;;;;;;;0.00;0.00;;;13.00;96.80;;;;;;5115184;28;20055;-80
2022/04/29 09:36:06;;;;;;;0.45;0.03;;;13.00;96.60;;;;;;5114455;28;20043;-80
2022/04/29 09:41:24;;;;;;;0.08;0.08;;;13.10;97.20;;;;;;5114392;28;20082;-80
2022/04/29 09:43:50;;;;;;;0.00;0.00;;;13.30;97.50;;;;;;5115091;28;20149;-80
2022/04/29 09:46:24;;;;;;;3.75;0.95;;;13.60;97.40;;;;;;5097120;28;20427;-80
2022/04/29 09:48:50;;;;;;;0.00;0.00;;;13.60;96.00;;;;;;5114073;28;20035;-80
2022/04/29 09:51:25;;;;;;;0.75;0.45;;;13.90;95.10;;;;;;5097485;28;20134;-80
2022/04/29 09:54:08;;;;;;;0.00;0.00;;;13.90;95.60;;;;;;5114340;28;20096;-80
2022/04/29 09:56:34;;;;;;;0.05;0.05;;;14.00;94.80;;;;;;5097280;28;20550;-80
2022/04/29 09:59:00;;;;;;;0.00;0.00;;;14.10;94.30;;;;;;5096747;28;20094;-80
2022/04/29 10:01:26;;;;;;;0.03;0.03;;;14.30;95.10;;;;;;5113361;28;20035;-80
2022/04/29 10:03:52;;;;;;;0.20;0.20;;;14.40;94.90;;;;;;5113567;28;20050;-80
2022/04/29 10:06:20;;;;;;;0.52;0.30;;;14.40;93.20;;;;;;5113601;28;20051;-80
2022/04/29 10:08:49;;;;;;;0.10;0.10;;;14.60;93.90;;;;;;5096523;28;20104;-80
2022/04/29 10:11:16;;;;;;;0.00;0.00;;;14.70;94.90;;;;;;5096706;28;20059;-81
2022/04/29 10:13:42;;;;;;;0.00;0.00;;;14.90;94.50;;;;;;5113077;28;20047;-81
2022/04/29 10:16:11;;;;;;;0.30;0.00;;;15.10;94.00;;;;;;5113612;28;20087;-81
2022/04/29 10:21:30;;;;;;;0.00;0.00;;;14.70;91.70;;;;;;5113668;28;20054;-80
2022/04/29 10:23:59;;;;;;;0.00;0.00;;;14.70;92.90;;;;;;5113363;28;20043;-80
2022/04/29 10:26:25;;;;;;;0.00;0.00;;;14.80;93.40;;;;;;5113925;28;20448;-80
2022/04/29 10:28:52;;;;;;;0.00;0.00;;;14.60;91.60;;;;;;5096646;28;20058;-80
2022/04/29 10:31:21;;;;;;;0.00;0.00;;;14.40;91.20;;;;;;5096698;28;20047;-80
2022/04/29 10:33:46;;;;;;;4.95;0.63;;;14.40;90.80;;;;;;5113288;28;20044;-80
2022/04/29 10:36:14;;;;;;;1.65;0.52;;;14.30;92.20;;;;;;5112669;28;20578;-80
2022/04/29 10:38:43;;;;;;;0.10;0.10;;;14.40;92.40;;;;;;5096267;28;20051;-80
2022/04/29 10:41:12;;;;;;;0.00;0.00;;;14.50;92.30;;;;;;5096891;28;20059;-80
2022/04/29 10:43:39;;;;;;;0.00;0.00;;;14.60;92.10;;;;;;5113365;28;20044;-80
2022/04/29 10:46:04;;;;;;;0.00;0.00;;;14.60;91.10;;;;;;5096318;28;20096;-80
2022/04/29 10:48:31;;;;;;;2.92;0.73;;;14.60;91.60;;;;;;5096470;28;20495;-80
2022/04/29 10:51:41;;;;;;;0.00;0.00;;;14.70;92.00;;;;;;5113224;28;20131;-80
2022/04/29 10:54:06;;;;;;;0.00;0.00;;;14.80;91.20;;;;;;5096017;28;20050;-81
2022/04/29 10:56:32;;;;;;;1.55;0.55;;;14.90;90.40;;;;;;5096094;28;20044;-80
2022/04/29 10:59:04;;;;;;;0.00;0.00;;;14.80;90.00;;;;;;5095844;28;20056;-80
2022/04/29 11:01:34;;;;;;;0.00;0.00;;;14.80;90.20;;;;;;5113283;28;20044;-80
2022/04/29 11:04:27;;;;;;;0.00;0.00;;;14.80;90.50;;;;;;5095956;28;20558;-80
2022/04/29 11:06:53;;;;;;;0.00;0.00;;;14.80;90.10;;;;;;5113100;28;20515;-81
2022/04/29 11:09:26;;;;;;;0.52;0.00;;;14.70;89.60;;;;;;5113371;28;20047;-80
2022/04/29 11:11:53;;;;;;;0.00;0.00;;;14.70;89.60;;;;;;5112896;28;20123;-81
2022/04/29 11:14:18;;;;;;;0.00;0.00;;;14.60;90.30;;;;;;5096194;28;20052;-81
2022/04/29 11:16:52;;;;;;;9.57;0.80;;;14.60;90.40;;;;;;5112613;28;20123;-81
2022/04/29 11:19:27;;;;;;;0.00;0.00;;;14.60;90.50;;;;;;5095988;28;20047;-80
2022/04/29 11:24:43;;;;;;;0.00;0.00;;;14.60;90.10;;;;;;5112795;28;20608;-80
2022/04/29 11:27:10;;;;;;;0.00;0.00;;;14.70;90.40;;;;;;5112979;28;20150;-80
2022/04/29 11:29:43;;;;;;;0.05;0.00;;;14.60;89.30;;;;;;5096025;28;20071;-80
2022/04/29 11:32:09;;;;;;;0.00;0.00;;;14.60;89.00;;;;;;5112814;28;20126;-80
2022/04/29 11:34:35;;;;;;;0.00;0.00;;;14.60;89.60;;;;;;5113373;28;20089;-80
2022/04/29 11:37:01;;;;;;;0.00;0.00;;;14.60;89.50;;;;;;5095590;28;20397;-80
2022/04/29 11:39:26;;;;;;;0.00;0.00;;;14.60;89.40;;;;;;5112792;28;20047;-80
2022/04/29 11:41:54;;;;;;;0.35;0.35;;;14.60;89.50;;;;;;5112734;28;20134;-80
2022/04/29 11:44:40;;;;;;;3.60;0.65;;;14.40;89.20;;;;;;5112594;28;20092;-80
2022/04/29 11:47:06;;;;;;;0.00;0.00;;;14.40;89.40;;;;;;5114374;28;20043;-80
2022/04/29 11:49:32;;;;;;;0.00;0.00;;;14.30;89.00;;;;;;5099721;28;20054;-80
2022/04/29 11:52:17;;;;;;;0.00;0.00;;;14.50;90.40;;;;;;5116252;28;20047;-80
2022/04/29 11:54:58;;;;;;;0.13;0.00;;;14.60;89.90;;;;;;5116404;28;20096;-81
2022/04/29 11:57:26;;;;;;;0.00;0.00;;;14.60;88.60;;;;;;5115534;28;20134;-80
2022/04/29 11:59:52;;;;;;;0.38;0.10;;;14.80;89.00;;;;;;5116544;28;20391;-81
2022/04/29 12:02:20;;;;;;;0.00;0.00;;;14.90;89.10;;;;;;5116340;28;20088;-80
2022/04/29 12:05:12;;;;;;;0.00;0.00;;;15.10;87.40;;;;;;5116207;28;20449;-80
2022/04/29 12:07:40;;;;;;;0.00;0.00;;;15.10;87.90;;;;;;5113115;28;20455;-81
2022/04/29 12:10:21;;;;;;;0.00;0.00;;;15.10;84.90;;;;;;5116046;28;20055;-81
2022/04/29 12:12:48;;;;;;;0.00;0.00;;;15.10;85.80;;;;;;5116498;28;20109;-81
2022/04/29 12:15:18;;;;;;;1.50;1.17;;;15.10;87.00;;;;;;5116055;28;20368;-81
2022/04/29 12:17:43;;;;;;;0.00;0.00;;;15.10;85.40;;;;;;5114948;28;20570;-81
2022/04/29 12:20:16;;;;;;;0.22;0.22;;;15.00;85.90;;;;;;5098973;28;20136;-81
2022/04/29 12:22:42;;;;;;;0.00;0.00;;;15.00;86.30;;;;;;5098501;28;20036;-81
2022/04/29 12:25:34;;;;;;;0.00;0.00;;;14.90;86.00;;;;;;5116239;28;20044;-81
2022/04/29 12:28:26;;;;;;;0.00;0.00;;;14.90;88.40;;;;;;5115436;28;20430;-81
2022/04/29 12:36:50;;;;;;;0.08;0.00;;;14.60;87.30;;;;;;5115512;28;20177;-81
2022/04/29 12:39:24;;;;;;;0.20;0.17;;;14.50;86.00;;;;;;5099206;28;20060;-82
2022/04/29 12:42:17;;;;;;;0.00;0.00;;;14.60;87.40;;;;;;5116027;28;20051;-81
2022/04/29 12:45:14;;;;;;;0.00;0.00;;;14.60;87.20;;;;;;5095812;28;20059;-81
2022/04/29 12:47:49;;;;;;;0.00;0.00;;;14.60;85.80;;;;;;5098723;28;20395;-81
2022/04/29 12:50:35;;;;;;;0.00;0.00;;;14.40;85.80;;;;;;5115513;28;20044;-81
2022/04/29 12:53:16;;;;;;;0.00;0.00;;;14.40;87.10;;;;;;5115361;28;20078;-81
2022/04/29 12:55:42;;;;;;;0.00;0.00;;;14.40;87.60;;;;;;5115857;28;20104;-81
2022/04/29 12:58:12;;;;;;;0.00;0.00;;;14.40;86.70;;;;;;5114527;28;20123;-81
2022/04/29 13:00:41;;;;;;;0.00;0.00;;;14.40;87.30;;;;;;5115184;28;20089;-81
2022/04/29 13:03:09;;;;;;;0.00;0.00;;;14.30;87.90;;;;;;5115015;28;20063;-81
2022/04/29 13:05:37;;;;;;;0.00;0.00;;;14.40;88.20;;;;;;5098009;28;20047;-81
2022/04/29 13:08:04;;;;;;;0.32;0.17;;;14.30;87.80;;;;;;5114838;28;20055;-81
2022/04/29 13:10:39;;;;;;;0.32;0.32;;;14.20;87.70;;;;;;5114796;28;20048;-81
2022/04/29 13:13:05;;;;;;;0.00;0.00;;;14.20;88.50;;;;;;5115417;28;20092;-81
2022/04/29 13:15:31;;;;;;;1.55;0.80;;;14.30;89.00;;;;;;5097727;28;20036;-81
2022/04/29 13:17:59;;;;;;;0.00;0.00;;;14.30;87.70;;;;;;5114702;28;20044;-81
2022/04/29 13:20:26;;;;;;;0.00;0.00;;;14.30;87.90;;;;;;5114448;28;20502;-81
2022/04/29 13:22:55;;;;;;;0.35;0.13;;;14.40;88.00;;;;;;5111958;28;20399;-81
2022/04/29 13:25:20;;;;;;;0.08;0.00;;;14.30;87.20;;;;;;5112333;28;20394;-80